createdAt,value
2023-05-23T00:00:08.647Z,54.00
2023-05-23T00:08:56.813Z,27.20
2023-05-23T00:17:22.130Z,34.40
2023-05-23T00:25:48.450Z,14.10
2023-05-23T00:34:11.571Z,13.20
2023-05-23T00:42:34.399Z,20.00
2023-05-23T00:50:57.654Z,16.90
2023-05-23T01:09:18.592Z,15.00
2023-05-23T01:17:42.434Z,11.10
2023-05-23T01:26:26.334Z,15.80
2023-05-23T01:34:55.920Z,14.70
2023-05-23T01:43:19.296Z,13.50
2023-05-23T01:51:42.795Z,12.20
2023-05-23T02:00:07.612Z,93.10
2023-05-23T02:08:38.706Z,131.70
2023-05-23T02:17:01.593Z,83.30
2023-05-23T02:25:24.548Z,198.10
2023-05-23T02:33:47.478Z,98.00
2023-05-23T02:42:11.016Z,183.10
2023-05-23T02:50:34.066Z,46.80
2023-05-23T02:58:57.191Z,35.90
2023-05-23T03:07:28.024Z,34.80
2023-05-23T03:15:51.906Z,15.40
2023-05-23T03:24:14.796Z,10.20
2023-05-23T03:32:38.092Z,10.00
2023-05-23T03:41:01.588Z,10.90
2023-05-23T03:49:24.636Z,9.70
2023-05-23T03:57:48.110Z,13.10
2023-05-23T04:06:13.605Z,10.20
2023-05-23T04:14:39.930Z,10.40
2023-05-23T04:23:03.981Z,10.50
2023-05-23T04:31:29.090Z,9.50
2023-05-23T04:39:53.378Z,7.80
2023-05-23T04:48:39.041Z,6.00
2023-05-23T04:57:02.477Z,11.40
2023-05-23T05:05:26.036Z,8.80
2023-05-23T05:13:50.150Z,6.10
2023-05-23T05:22:13.156Z,12.80
2023-05-23T05:30:37.715Z,6.60
2023-05-23T05:39:02.482Z,13.40
2023-05-23T05:47:26.243Z,6.80
2023-05-23T05:55:49.894Z,8.40
2023-05-23T06:04:14.240Z,4.90
2023-05-23T06:12:37.900Z,37.50
2023-05-23T06:21:01.102Z,10.10
2023-05-23T06:29:25.094Z,3.60
2023-05-23T06:37:49.719Z,7.40
2023-05-23T06:46:13.051Z,7.00
2023-05-23T06:54:40.702Z,9.40
2023-05-23T07:03:04.528Z,7.80
2023-05-23T07:11:28.032Z,4.20
2023-05-23T07:19:54.486Z,1.90
2023-05-23T07:28:18.403Z,6.20
2023-05-23T07:36:42.429Z,5.80
2023-05-23T07:45:07.941Z,2.90
2023-05-23T07:53:32.823Z,11.00
2023-05-23T08:01:56.264Z,6.10
2023-05-23T08:10:21.817Z,9.60
2023-05-23T08:18:45.187Z,5.30
2023-05-23T08:27:09.142Z,10.10
2023-05-23T08:35:36.845Z,7.10
2023-05-23T08:44:03.300Z,13.80
2023-05-23T08:52:32.727Z,13.50
2023-05-23T09:00:56.152Z,4.00
2023-05-23T09:09:19.690Z,3.90
2023-05-23T09:17:43.263Z,7.20
2023-05-23T09:26:09.486Z,5.60
2023-05-23T09:34:32.765Z,3.10
2023-05-23T09:42:55.811Z,8.70
2023-05-23T09:51:23.262Z,9.20
2023-05-23T09:59:54.723Z,4.00
2023-05-23T10:08:29.846Z,8.20
2023-05-23T10:17:01.739Z,9.90
2023-05-23T10:25:25.098Z,3.10
2023-05-23T10:33:58.542Z,8.10
2023-05-23T10:42:37.042Z,8.80
2023-05-23T10:51:08.717Z,7.50
2023-05-23T10:59:32.272Z,22.80
2023-05-23T11:08:11.516Z,16.60
2023-05-23T11:16:42.541Z,7.70
2023-05-23T11:25:12.375Z,5.10
2023-05-23T11:33:35.489Z,9.00
2023-05-23T11:42:02.463Z,5.50
2023-05-23T11:50:25.654Z,8.40
2023-05-23T11:58:48.825Z,4.20
2023-05-23T12:07:11.697Z,10.10
2023-05-23T12:15:34.691Z,11.10
2023-05-23T12:23:57.785Z,7.70
2023-05-23T12:32:25.163Z,6.70
2023-05-23T12:40:48.058Z,9.10
2023-05-23T12:49:11.871Z,7.60
2023-05-23T12:57:35.640Z,4.80
2023-05-23T13:05:59.445Z,5.90
2023-05-23T13:14:22.337Z,6.10
2023-05-23T13:22:45.341Z,5.90
2023-05-23T13:31:08.272Z,7.30
2023-05-23T13:39:32.031Z,5.50
2023-05-23T13:47:54.896Z,9.40
2023-05-23T13:56:18.255Z,9.20
2023-05-23T14:04:41.230Z,11.50
2023-05-23T14:13:04.113Z,7.20
2023-05-23T14:21:28.379Z,11.20
2023-05-23T14:29:51.255Z,8.50
2023-05-23T14:38:14.114Z,6.30
2023-05-23T14:46:37.719Z,6.20
2023-05-23T14:55:01.160Z,15.20
2023-05-23T15:03:24.255Z,3.30
2023-05-23T15:11:49.490Z,5.50
2023-05-23T15:20:12.600Z,6.10
2023-05-23T15:28:35.726Z,9.60
2023-05-23T15:36:58.637Z,6.80
2023-05-23T15:45:22.147Z,4.30
2023-05-23T15:54:00.075Z,72.30
2023-05-23T16:02:25.718Z,7.60
2023-05-23T16:10:51.669Z,4.00
2023-05-23T16:19:15.499Z,9.30
2023-05-23T16:27:39.492Z,11.20
2023-05-23T16:36:02.699Z,4.50
2023-05-23T16:44:25.811Z,11.10
2023-05-23T16:52:49.536Z,8.70
2023-05-23T17:01:13.350Z,4.60
2023-05-23T17:09:37.292Z,7.00
2023-05-23T17:18:00.294Z,3.00
2023-05-23T17:26:26.529Z,26.40
2023-05-23T17:34:50.042Z,6.70
2023-05-23T17:43:13.290Z,9.60
2023-05-23T17:51:37.240Z,12.00
2023-05-23T18:00:00.316Z,16.40
2023-05-23T18:08:23.491Z,33.70
2023-05-23T18:16:47.398Z,75.70
2023-05-23T18:25:11.860Z,141.60
2023-05-23T18:33:35.747Z,92.10
2023-05-23T18:42:00.052Z,45.50
2023-05-23T18:50:24.428Z,21.70
2023-05-23T18:58:49.908Z,14.30
2023-05-23T19:07:14.294Z,13.10
2023-05-23T19:15:37.476Z,15.10
2023-05-23T19:24:02.357Z,18.00
2023-05-23T19:32:25.466Z,70.00
2023-05-23T19:40:49.426Z,99.40
2023-05-23T19:49:15.218Z,66.60
2023-05-23T19:57:38.402Z,40.20
2023-05-23T20:06:01.673Z,32.30
2023-05-23T20:14:26.745Z,39.20
2023-05-23T20:22:51.620Z,36.00
2023-05-23T20:31:16.487Z,35.00
2023-05-23T20:39:41.702Z,46.00
2023-05-23T20:48:04.597Z,79.90
2023-05-23T20:56:27.553Z,55.80
2023-05-23T21:04:51.022Z,53.40
2023-05-23T21:13:13.968Z,47.90
2023-05-23T21:21:37.552Z,39.30
2023-05-23T21:30:00.403Z,29.60
2023-05-23T21:38:25.026Z,18.60
2023-05-23T21:46:48.015Z,23.40
2023-05-23T21:55:11.075Z,37.10
2023-05-23T22:03:34.135Z,27.60
2023-05-23T22:11:57.797Z,15.80
2023-05-23T22:20:22.356Z,14.90
2023-05-23T22:28:46.171Z,10.80
2023-05-23T22:37:10.153Z,13.60
2023-05-23T22:45:42.545Z,9.60
2023-05-23T22:54:05.549Z,8.60
2023-05-23T23:02:28.790Z,11.00
2023-05-23T23:10:51.772Z,7.30
2023-05-23T23:19:14.720Z,7.30
2023-05-23T23:27:38.630Z,8.40
2023-05-23T23:36:01.510Z,8.60
2023-05-23T23:44:24.415Z,7.10
2023-05-23T23:52:47.494Z,13.80
